Time;durP1;ratioP1;P1;durP2;ratioP2;P2;SDS_P1;SDS_P2;PMS_P1;PMS_P2;Temp;Humidity;BMP_temperature;BMP_pressure;BME280_temperature;BME280_humidity;BME280_pressure;Samples;Min_cycle;Max_cycle;Signal;HPM_P1;HPM_P2
2022/04/10 00:00:53;;;;;;;8.40;6.25;;;;;;;4.81;80.89;98241.44;4138114;28;20235;-84
2022/04/10 00:03:00;;;;;;;7.38;5.32;;;;;;;4.76;80.42;98244.22;4135147;28;20257;-84
2022/04/10 00:05:04;;;;;;;7.13;4.85;;;;;;;4.75;81.29;98246.88;4134304;28;21700;-84
2022/04/10 00:07:08;;;;;;;6.60;5.43;;;;;;;4.71;82.07;98245.34;4136652;28;21667;-84
2022/04/10 00:09:13;;;;;;;6.15;4.30;;;;;;;4.73;81.97;98248.69;4139689;28;20784;-84
2022/04/10 00:11:17;;;;;;;7.07;5.40;;;;;;;4.68;82.54;98235.13;4137137;28;20246;-84
2022/04/10 00:13:21;;;;;;;8.82;4.95;;;;;;;4.63;81.26;98243.97;4138844;28;20624;-84
2022/04/10 00:15:25;;;;;;;9.00;5.68;;;;;;;4.63;81.82;98242.25;4139203;28;20222;-83
2022/04/10 00:17:30;;;;;;;7.32;5.22;;;;;;;4.60;82.56;98239.81;4137456;28;20304;-83
2022/04/10 00:19:34;;;;;;;7.45;5.40;;;;;;;4.63;82.88;98241.38;4123310;28;20239;-83
2022/04/10 00:21:37;;;;;;;7.30;5.97;;;;;;;4.63;81.92;98251.72;4139537;28;20215;-84
2022/04/10 00:23:40;;;;;;;6.68;4.88;;;;;;;4.55;82.26;98244.28;4141956;28;20212;-83
2022/04/10 00:25:44;;;;;;;6.47;4.80;;;;;;;4.51;83.96;98253.09;4139614;28;20231;-83
2022/04/10 00:27:47;;;;;;;6.25;4.95;;;;;;;4.48;84.08;98254.94;4139115;28;20210;-84
2022/04/10 00:29:52;;;;;;;8.50;5.20;;;;;;;4.48;83.03;98248.06;4134966;28;20270;-83
2022/04/10 00:31:58;;;;;;;8.88;5.05;;;;;;;4.43;83.56;98252.56;4124691;28;20279;-83
2022/04/10 00:34:01;;;;;;;8.88;6.10;;;;;;;4.42;83.27;98247.44;4153814;28;20222;-84
2022/04/10 00:36:04;;;;;;;9.50;5.70;;;;;;;4.41;83.15;98248.38;4136322;28;20214;-84
2022/04/10 00:38:08;;;;;;;7.50;5.45;;;;;;;4.43;83.92;98243.97;4139003;28;20314;-84
2022/04/10 00:40:11;;;;;;;7.47;5.18;;;;;;;4.38;84.04;98244.16;4139484;28;20230;-83
2022/04/10 00:42:15;;;;;;;8.73;6.90;;;;;;;4.35;83.42;98241.72;4142927;28;20209;-83
2022/04/10 00:44:18;;;;;;;7.35;5.57;;;;;;;4.35;83.98;98241.72;4154792;28;20280;-84
2022/04/10 00:46:23;;;;;;;8.35;4.75;;;;;;;4.33;83.75;98246.13;4139913;28;20214;-83
2022/04/10 00:48:26;;;;;;;8.98;5.53;;;;;;;4.29;83.41;98249.72;4143216;28;20213;-83
2022/04/10 00:50:30;;;;;;;7.38;5.30;;;;;;;4.27;84.21;98248.94;4130173;28;20267;-84
2022/04/10 00:52:34;;;;;;;8.20;5.55;;;;;;;4.26;84.43;98247.25;4126065;28;20243;-83
2022/04/10 00:54:37;;;;;;;7.80;5.10;;;;;;;4.29;83.83;98254.03;4131184;28;20312;-83
2022/04/10 00:56:41;;;;;;;7.55;5.25;;;;;;;4.25;84.09;98249.91;4131780;28;20221;-84
2022/04/10 00:58:44;;;;;;;9.68;5.68;;;;;;;4.24;84.24;98251.66;4144100;28;20227;-83
2022/04/10 01:00:54;;;;;;;7.57;5.30;;;;;;;4.25;84.12;98255.91;4144716;28;20219;-83
2022/04/10 01:02:59;;;;;;;6.13;4.93;;;;;;;4.24;84.13;98251.66;4132573;28;20212;-84
2022/04/10 01:05:03;;;;;;;8.68;5.80;;;;;;;4.21;84.08;98259.53;4133159;28;20203;-84
2022/04/10 01:07:06;;;;;;;8.30;5.03;;;;;;;4.19;84.66;98257.06;4134482;28;20607;-84
2022/04/10 01:09:16;;;;;;;8.57;6.03;;;;;;;4.16;85.08;98252.03;4134809;28;20230;-84
2022/04/10 01:11:19;;;;;;;7.85;4.88;;;;;;;4.16;84.92;98262.34;4148011;28;20678;-83
2022/04/10 01:13:24;;;;;;;6.40;5.10;;;;;;;4.19;84.76;98257.88;4122710;28;20205;-84
2022/04/10 01:15:28;;;;;;;6.38;4.35;;;;;;;4.17;84.13;98270.03;4132530;28;20316;-84
2022/04/10 01:17:31;;;;;;;7.97;4.72;;;;;;;4.14;85.42;98271.91;4146790;28;20284;-83
2022/04/10 01:19:38;;;;;;;7.03;4.75;;;;;;;4.18;84.18;98276.00;4146657;28;20653;-84
2022/04/10 01:21:44;;;;;;;6.68;4.80;;;;;;;4.16;85.17;98276.06;4131563;28;20202;-84
2022/04/10 01:23:49;;;;;;;7.43;5.03;;;;;;;4.13;84.27;98272.78;4144205;28;20275;-84
2022/04/10 01:25:52;;;;;;;6.68;4.85;;;;;;;4.14;84.89;98270.16;4125215;28;20211;-83
2022/04/10 01:27:56;;;;;;;8.55;5.22;;;;;;;4.16;85.69;98272.66;4137151;28;20261;-84
2022/04/10 01:30:02;;;;;;;8.07;4.82;;;;;;;4.14;85.40;98272.72;4143526;28;20272;-83
2022/04/10 01:32:07;;;;;;;7.72;4.60;;;;;;;4.12;85.40;98268.53;4129995;28;20335;-84
2022/04/10 01:34:13;;;;;;;9.85;5.25;;;;;;;4.15;85.38;98274.41;4137439;28;20764;-84
2022/04/10 01:36:17;;;;;;;6.30;5.07;;;;;;;4.17;84.99;98269.19;4139470;28;20265;-83
2022/04/10 01:38:20;;;;;;;6.20;4.93;;;;;;;4.18;86.18;98270.84;4132974;28;20276;-84
2022/04/10 01:40:35;;;;;;;8.35;5.28;;;;;;;4.21;85.24;98279.34;4148455;28;20356;-84
2022/04/10 01:42:39;;;;;;;10.02;5.03;;;;;;;4.20;85.00;98275.88;4135687;28;20619;-84
2022/04/10 01:44:42;;;;;;;6.75;4.45;;;;;;;4.19;85.76;98275.13;4123148;28;20305;-84
2022/04/10 01:46:51;;;;;;;5.63;4.68;;;;;;;4.15;85.29;98270.97;4127854;28;20210;-84
2022/04/10 01:48:54;;;;;;;6.68;4.75;;;;;;;4.18;85.87;98283.75;4130594;28;20211;-84
2022/04/10 01:50:58;;;;;;;6.75;5.03;;;;;;;4.19;85.68;98275.94;4128998;28;20300;-84
2022/04/10 01:53:04;;;;;;;6.25;5.00;;;;;;;4.16;85.92;98277.81;4142340;28;20209;-83
2022/04/10 01:55:09;;;;;;;6.68;5.30;;;;;;;4.13;86.68;98276.19;4145903;28;20247;-84
2022/04/10 01:57:14;;;;;;;5.53;4.90;;;;;;;4.15;85.94;98276.13;4148323;28;20689;-84
2022/04/10 01:59:18;;;;;;;5.97;4.82;;;;;;;4.16;86.30;98275.25;4138410;28;20945;-84
2022/04/10 02:01:22;;;;;;;9.93;5.63;;;;;;;4.17;85.79;98274.34;4131366;28;20214;-83
2022/04/10 02:03:27;;;;;;;7.97;5.63;;;;;;;4.19;85.17;98277.69;4145364;28;20795;-84
2022/04/10 02:05:31;;;;;;;7.50;5.30;;;;;;;4.19;85.62;98275.13;4135035;28;20201;-83
2022/04/10 02:07:34;;;;;;;8.30;5.20;;;;;;;4.22;86.45;98271.53;4151179;28;20206;-84
2022/04/10 02:09:39;;;;;;;10.65;6.70;;;;;;;4.24;86.07;98274.88;4144948;28;20263;-83
2022/04/10 02:11:44;;;;;;;9.38;5.90;;;;;;;4.29;85.19;98277.28;4146011;28;20242;-83
2022/04/10 02:13:49;;;;;;;9.32;5.75;;;;;;;4.24;86.12;98277.47;4118180;28;20278;-83
2022/04/10 02:15:53;;;;;;;7.43;5.30;;;;;;;4.19;85.29;98278.53;4115826;28;20661;-83
2022/04/10 02:17:56;;;;;;;9.13;5.28;;;;;;;4.15;84.72;98278.72;4148038;28;20238;-84
2022/04/10 02:20:00;;;;;;;6.90;5.70;;;;;;;4.16;85.08;98283.81;4132789;28;20230;-84
2022/04/10 02:22:03;;;;;;;7.13;4.95;;;;;;;4.12;84.62;98284.84;4146952;28;20294;-83
2022/04/10 02:24:08;;;;;;;6.95;5.10;;;;;;;4.09;84.10;98284.97;4138518;28;20275;-83
2022/04/10 02:26:12;;;;;;;8.85;4.57;;;;;;;4.06;85.63;98279.09;4149098;28;20215;-83
2022/04/10 02:28:16;;;;;;;6.40;4.90;;;;;;;4.01;84.63;98286.19;4137905;28;20287;-83
2022/04/10 02:30:22;;;;;;;6.80;4.93;;;;;;;3.96;85.23;98286.34;4128699;28;20596;-83
2022/04/10 02:32:25;;;;;;;7.38;5.22;;;;;;;3.93;85.08;98278.72;4142456;28;20260;-83
2022/04/10 02:34:29;;;;;;;9.52;5.20;;;;;;;3.94;85.24;98280.44;4143346;28;20236;-83
2022/04/10 02:36:32;;;;;;;9.35;6.40;;;;;;;3.93;85.05;98280.47;4144334;28;20220;-83
2022/04/10 02:38:36;;;;;;;9.43;5.40;;;;;;;3.90;85.32;98278.03;4136122;28;20232;-83
2022/04/10 02:40:40;;;;;;;7.32;5.50;;;;;;;3.90;85.88;98285.75;4149409;28;20216;-83
2022/04/10 02:42:44;;;;;;;8.15;5.57;;;;;;;3.89;84.62;98290.09;4137695;28;20212;-83
2022/04/10 02:44:47;;;;;;;6.68;5.25;;;;;;;3.88;84.82;98290.16;4148920;28;20210;-84
2022/04/10 02:46:52;;;;;;;7.95;5.13;;;;;;;3.85;84.91;98283.38;4119739;28;20228;-84
2022/04/10 02:48:56;;;;;;;9.05;5.40;;;;;;;3.80;85.30;98287.00;4135825;28;20631;-84
2022/04/10 02:50:59;;;;;;;7.25;5.65;;;;;;;3.77;84.96;98293.16;4138681;28;20212;-84
2022/04/10 02:53:02;;;;;;;7.75;4.82;;;;;;;3.74;85.06;98295.84;4135333;28;20251;-83
2022/04/10 02:55:06;;;;;;;7.80;5.30;;;;;;;3.77;85.63;98294.84;4129783;28;20267;-84
2022/04/10 02:57:28;;;;;;;7.13;5.18;;;;;;;3.70;84.42;98290.84;4145427;28;20337;-84
2022/04/10 02:59:50;;;;;;;6.88;5.10;;;;;;;3.67;84.67;98292.69;4148106;28;20224;-84
2022/04/10 03:02:13;;;;;;;8.65;5.85;;;;;;;3.60;85.36;98293.84;4146243;28;20212;-84
2022/04/10 03:04:35;;;;;;;7.15;5.68;;;;;;;3.60;85.25;98297.25;4143803;28;20711;-83
2022/04/10 03:06:58;;;;;;;8.18;5.40;;;;;;;3.54;84.79;98292.31;4152879;28;20209;-83
2022/04/10 03:09:22;;;;;;;6.80;5.03;;;;;;;3.53;85.43;98298.38;4148052;28;20353;-84
2022/04/10 03:11:45;;;;;;;9.93;5.50;;;;;;;3.53;84.82;98293.22;4131360;28;20208;-84
2022/04/10 03:14:07;;;;;;;7.30;5.50;;;;;;;3.47;85.41;98298.63;4136499;28;20677;-84
2022/04/10 03:16:29;;;;;;;10.07;6.00;;;;;;;3.46;85.47;98299.50;4136831;28;20213;-84
2022/04/10 03:18:55;;;;;;;8.32;5.40;;;;;;;3.41;85.27;98298.84;4143387;28;20702;-84
2022/04/10 03:21:17;;;;;;;8.63;5.60;;;;;;;3.42;86.07;98305.66;4143443;28;20585;-84
2022/04/10 03:23:39;;;;;;;8.40;6.07;;;;;;;3.37;86.15;98302.41;4146344;28;20216;-84
2022/04/10 03:26:02;;;;;;;7.57;5.25;;;;;;;3.37;86.13;98312.72;4143392;28;20208;-83
2022/04/10 03:28:26;;;;;;;10.63;5.97;;;;;;;3.37;85.99;98307.56;4137113;28;20652;-83
2022/04/10 03:30:48;;;;;;;7.15;5.35;;;;;;;3.32;85.73;98304.34;4133272;28;20307;-84
2022/04/10 03:33:11;;;;;;;8.15;6.50;;;;;;;3.34;85.41;98306.84;4147991;28;20388;-84
2022/04/10 03:35:34;;;;;;;10.05;5.72;;;;;;;3.33;85.22;98306.00;4145032;28;20790;-83
2022/04/10 03:38:00;;;;;;;11.02;5.35;;;;;;;3.28;85.80;98313.06;4135927;28;20620;-83
2022/04/10 03:40:22;;;;;;;8.35;6.25;;;;;;;3.26;85.78;98318.31;4144433;28;20221;-83
2022/04/10 03:42:46;;;;;;;6.75;5.65;;;;;;;3.20;86.15;98321.13;4146606;28;20226;-84
2022/04/10 03:45:09;;;;;;;7.45;5.88;;;;;;;3.15;86.29;98320.47;4146246;28;20785;-84
2022/04/10 03:47:32;;;;;;;10.27;6.30;;;;;;;3.09;85.75;98323.25;4143960;28;20258;-84
2022/04/10 03:49:53;;;;;;;7.78;5.90;;;;;;;3.07;85.91;98327.63;4145724;28;20230;-84
2022/04/10 03:52:17;;;;;;;6.90;4.70;;;;;;;3.09;86.17;98320.66;4130876;28;20908;-84
2022/04/10 03:54:39;;;;;;;6.65;4.47;;;;;;;3.07;86.18;98333.59;4153428;28;20491;-84
2022/04/10 03:57:01;;;;;;;8.60;5.32;;;;;;;3.07;86.58;98335.34;4136466;28;20217;-84
2022/04/10 03:59:24;;;;;;;6.38;4.80;;;;;;;3.04;86.51;98344.00;4127281;28;20219;-83
2022/04/10 04:01:47;;;;;;;5.50;4.43;;;;;;;3.03;86.19;98341.50;4141849;28;20679;-83
2022/04/10 04:04:09;;;;;;;8.00;4.43;;;;;;;3.01;86.04;98343.28;4140103;28;20343;-83
2022/04/10 04:06:31;;;;;;;5.88;4.32;;;;;;;3.01;86.15;98345.88;4133818;28;20228;-83
2022/04/10 04:08:54;;;;;;;6.03;3.83;;;;;;;2.99;86.69;98347.63;4141871;28;20221;-83
2022/04/10 04:11:17;;;;;;;6.35;4.40;;;;;;;2.98;86.34;98351.13;4137010;28;20191;-83
2022/04/10 04:13:40;;;;;;;7.15;3.70;;;;;;;2.98;86.12;98359.69;4136211;28;20237;-83
2022/04/10 04:16:02;;;;;;;7.47;3.50;;;;;;;3.03;86.01;98362.09;4130508;28;20262;-83
2022/04/10 04:18:25;;;;;;;6.25;3.53;;;;;;;3.03;86.35;98369.81;4136441;28;20215;-83
2022/04/10 04:20:47;;;;;;;6.25;3.75;;;;;;;2.97;86.19;98370.03;4137100;28;20682;-83
2022/04/10 04:23:08;;;;;;;6.53;4.47;;;;;;;2.93;85.75;98371.00;4145231;28;20277;-83
2022/04/10 04:25:32;;;;;;;6.40;4.05;;;;;;;2.94;85.72;98372.72;4134916;28;20198;-83
2022/04/10 04:27:54;;;;;;;6.05;4.38;;;;;;;2.91;85.81;98375.38;4135698;28;20287;-83
2022/04/10 04:30:17;;;;;;;6.10;4.10;;;;;;;2.90;86.32;98381.41;4133745;28;20216;-83
2022/04/10 04:32:41;;;;;;;7.60;4.63;;;;;;;2.94;86.20;98393.31;4141383;28;20706;-83
2022/04/10 04:35:03;;;;;;;8.05;4.43;;;;;;;2.91;86.45;98381.38;4140297;28;20227;-84
2022/04/10 04:37:26;;;;;;;8.43;3.92;;;;;;;2.91;86.59;98389.09;4138495;28;20208;-83
2022/04/10 04:39:47;;;;;;;8.27;4.70;;;;;;;2.97;85.94;98390.63;4138124;28;20208;-83
2022/04/10 04:42:11;;;;;;;4.00;3.40;;;;;;;2.95;86.00;98390.69;4145492;28;20207;-83
2022/04/10 04:44:33;;;;;;;7.50;3.90;;;;;;;2.99;86.01;98387.13;4136890;28;20225;-83
2022/04/10 04:46:55;;;;;;;4.82;3.63;;;;;;;2.99;85.65;98393.97;4139195;28;20199;-83
2022/04/10 04:49:17;;;;;;;4.47;3.78;;;;;;;3.05;86.03;98398.94;4148611;28;20661;-83
2022/04/10 04:51:39;;;;;;;10.10;4.88;;;;;;;3.03;85.59;98398.16;4134079;28;20310;-83
2022/04/10 04:54:03;;;;;;;8.77;5.28;;;;;;;3.05;85.81;98407.53;4146447;28;20235;-83
2022/04/10 04:56:25;;;;;;;5.70;4.45;;;;;;;3.06;86.22;98411.75;4133154;28;20230;-83
2022/04/10 04:58:49;;;;;;;9.48;4.50;;;;;;;3.07;86.67;98410.03;4148012;28;20203;-83
2022/04/10 05:01:12;;;;;;;8.27;4.40;;;;;;;3.06;86.25;98405.78;4149000;28;20205;-83
2022/04/10 05:03:34;;;;;;;6.18;4.13;;;;;;;3.08;86.17;98419.44;4137445;28;20208;-83
2022/04/10 05:05:56;;;;;;;6.43;4.70;;;;;;;3.19;86.49;98417.31;4137387;28;20290;-83
2022/04/10 05:08:22;;;;;;;5.05;4.43;;;;;;;3.31;85.86;98418.59;4146015;28;20274;-83
2022/04/10 05:10:46;;;;;;;6.63;3.80;;;;;;;3.41;86.00;98426.84;4145318;28;20270;-84
2022/04/10 05:13:09;;;;;;;7.40;5.05;;;;;;;3.52;86.37;98430.75;4147598;28;20740;-83
2022/04/10 05:15:33;;;;;;;5.57;3.60;;;;;;;3.65;86.06;98431.97;4146536;28;20296;-83
2022/04/10 05:17:55;;;;;;;7.40;4.10;;;;;;;3.77;84.92;98431.53;4144320;28;20203;-84
2022/04/10 05:20:18;;;;;;;4.70;3.83;;;;;;;3.91;85.31;98439.59;4141588;28;20197;-83
2022/04/10 05:22:57;;;;;;;6.05;3.75;;;;;;;4.08;85.09;98443.25;4147293;28;20228;-83
2022/04/10 05:25:21;;;;;;;5.20;3.80;;;;;;;4.26;83.46;98448.56;4144460;28;20212;-83
2022/04/10 05:27:45;;;;;;;6.72;4.00;;;;;;;4.36;84.14;98449.91;4149331;28;20213;-83
2022/04/10 05:30:09;;;;;;;4.50;3.60;;;;;;;4.51;83.65;98458.78;4141406;28;20243;-83
2022/04/10 05:32:33;;;;;;;3.60;2.90;;;;;;;4.68;82.99;98462.41;4143976;28;20602;-83
2022/04/10 05:34:55;;;;;;;4.47;3.30;;;;;;;4.83;82.27;98462.63;4136161;28;20231;-83
2022/04/10 05:37:18;;;;;;;5.88;3.45;;;;;;;5.03;81.90;98465.25;4138682;28;20200;-83
2022/04/10 05:39:44;;;;;;;7.10;3.35;;;;;;;5.24;80.70;98461.78;4147209;28;20196;-84
2022/04/10 05:42:07;;;;;;;5.22;3.58;;;;;;;5.44;80.49;98473.00;4131408;28;20705;-84
2022/04/10 05:44:30;;;;;;;4.85;3.85;;;;;;;5.65;80.07;98474.66;4144693;28;20214;-83
2022/04/10 05:46:52;;;;;;;4.30;3.90;;;;;;;5.84;79.50;98478.16;4141671;28;20204;-83
2022/04/10 05:49:18;;;;;;;5.50;3.83;;;;;;;5.70;79.63;98486.47;4134291;28;20231;-83
2022/04/10 05:51:40;;;;;;;5.57;3.90;;;;;;;5.45;79.03;98476.41;4134514;28;20797;-84
2022/04/10 05:54:02;;;;;;;5.88;3.95;;;;;;;5.25;80.41;98476.41;4135518;28;20239;-83
2022/04/10 05:56:29;;;;;;;5.70;3.67;;;;;;;5.13;80.34;98481.22;4137054;28;20210;-83
2022/04/10 05:58:52;;;;;;;6.55;3.50;;;;;;;5.08;81.05;98483.97;4143616;28;20242;-83
2022/04/10 06:01:14;;;;;;;6.80;4.10;;;;;;;5.17;81.52;98487.06;4132805;28;20240;-84
2022/04/10 06:03:38;;;;;;;6.78;4.70;;;;;;;5.21;80.98;98488.59;4133077;28;20244;-83
2022/04/10 06:06:06;;;;;;;9.85;4.10;;;;;;;5.27;81.67;98495.28;4137598;28;22119;-83
2022/04/10 06:08:36;;;;;;;9.30;6.03;;;;;;;5.22;80.67;98500.63;4148972;28;20207;-83
2022/04/10 06:10:58;;;;;;;8.88;5.53;;;;;;;5.16;80.29;98503.47;4136169;28;20305;-83
2022/04/10 06:13:21;;;;;;;6.07;4.97;;;;;;;5.36;79.81;98498.31;4156841;28;20689;-83
2022/04/10 06:15:32;;;;;;;10.10;5.85;;;;;;;5.38;79.56;98513.75;4153010;28;20232;-83
2022/04/10 06:17:36;;;;;;;5.80;5.20;;;;;;;5.33;79.54;98503.59;4133054;28;20217;-83
2022/04/10 06:19:39;;;;;;;7.43;5.63;;;;;;;5.60;80.58;98511.06;4138252;28;20239;-83
2022/04/10 06:21:50;;;;;;;5.03;4.53;;;;;;;5.84;80.31;98511.81;4151182;28;20219;-83
2022/04/10 06:23:54;;;;;;;7.82;5.40;;;;;;;5.80;80.08;98512.84;4137127;28;20628;-83
2022/04/10 06:26:14;;;;;;;8.45;5.20;;;;;;;5.81;81.39;98515.34;4143577;28;20591;-83
2022/04/10 06:28:19;;;;;;;5.22;4.55;;;;;;;5.87;81.06;98522.84;4154400;28;20209;-83
2022/04/10 06:30:24;;;;;;;4.80;4.30;;;;;;;5.93;81.12;98517.41;4152436;28;20221;-83
2022/04/10 06:32:32;;;;;;;7.75;5.45;;;;;;;5.94;81.14;98523.41;4136102;28;20213;-84
2022/04/10 06:34:38;;;;;;;7.97;5.50;;;;;;;5.97;81.68;98518.97;4144970;28;20278;-84
2022/04/10 06:36:44;;;;;;;6.70;5.95;;;;;;;6.01;81.66;98522.25;4149135;28;20714;-83
2022/04/10 06:38:53;;;;;;;7.55;6.05;;;;;;;6.02;81.93;98531.72;4148624;28;20332;-83
2022/04/10 06:41:02;;;;;;;6.10;5.40;;;;;;;6.04;82.07;98528.13;4147058;28;20656;-83
2022/04/10 06:43:08;;;;;;;6.55;5.40;;;;;;;6.12;81.99;98528.66;4150627;28;20210;-83
2022/04/10 06:45:37;;;;;;;8.38;5.47;;;;;;;6.19;81.77;98530.06;4138485;28;20659;-83
2022/04/10 06:47:50;;;;;;;7.45;5.38;;;;;;;6.25;83.16;98538.38;4147451;28;20219;-83
2022/04/10 06:49:53;;;;;;;8.43;5.45;;;;;;;6.29;83.96;98529.59;4121562;28;20761;-83
2022/04/10 06:51:56;;;;;;;8.77;6.10;;;;;;;6.34;83.92;98540.56;4138485;28;20231;-83
2022/04/10 06:54:09;;;;;;;7.20;5.63;;;;;;;6.40;83.79;98540.28;4137969;28;20225;-83
2022/04/10 06:56:13;;;;;;;7.72;5.85;;;;;;;6.49;84.66;98532.13;4150376;28;20206;-83
2022/04/10 06:58:19;;;;;;;7.60;6.25;;;;;;;6.56;84.23;98536.13;4142110;28;20215;-82
2022/04/10 07:00:24;;;;;;;10.60;7.93;;;;;;;6.65;83.66;98541.72;4144918;28;20325;-82
2022/04/10 07:02:27;;;;;;;9.48;7.15;;;;;;;6.75;83.19;98547.31;4155602;28;20200;-83
2022/04/10 07:04:31;;;;;;;14.02;10.82;;;;;;;6.85;83.79;98539.03;4147513;28;20214;-83
2022/04/10 07:06:39;;;;;;;9.40;6.53;;;;;;;6.97;82.34;98551.44;4149835;28;20218;-82
2022/04/10 07:08:42;;;;;;;8.00;6.70;;;;;;;7.08;81.55;98547.44;4153415;28;20214;-83
2022/04/10 07:10:47;;;;;;;9.27;6.28;;;;;;;7.16;80.12;98552.25;4123315;28;20211;-83
2022/04/10 07:12:51;;;;;;;7.55;6.72;;;;;;;7.21;80.89;98540.75;4136246;28;20870;-83
2022/04/10 07:15:01;;;;;;;8.23;7.00;;;;;;;7.32;80.64;98548.00;4145127;28;20211;-83
2022/04/10 07:17:05;;;;;;;6.88;5.70;;;;;;;7.44;79.39;98553.44;4151923;28;20215;-82
2022/04/10 07:19:08;;;;;;;10.85;6.07;;;;;;;7.56;78.15;98545.91;4146288;28;20211;-84
2022/04/10 07:21:13;;;;;;;7.47;5.95;;;;;;;7.76;79.03;98540.56;4134882;28;20664;-84
2022/04/10 07:25:39;;;;;;;7.43;6.20;;;;;;;8.07;79.25;98557.13;4131471;28;20207;-83
2022/04/10 07:27:43;;;;;;;6.78;5.68;;;;;;;8.13;79.48;98554.25;4136563;28;20303;-84
2022/04/10 07:30:14;;;;;;;7.47;5.82;;;;;;;8.24;78.30;98556.28;4146355;28;20199;-84
2022/04/10 07:32:17;;;;;;;9.48;6.55;;;;;;;8.26;79.62;98551.84;4131460;28;20213;-83
2022/04/10 07:34:34;;;;;;;10.60;6.30;;;;;;;8.30;78.27;98559.41;4147206;28;20239;-83
2022/04/10 07:36:47;;;;;;;9.80;6.70;;;;;;;8.34;78.75;98560.09;4146906;28;21347;-83
2022/04/10 07:38:52;;;;;;;6.50;5.32;;;;;;;8.46;78.13;98560.28;4118473;28;20212;-83
2022/04/10 07:41:05;;;;;;;7.28;5.68;;;;;;;8.51;76.64;98553.09;4146523;28;20672;-83
2022/04/10 07:43:15;;;;;;;8.50;5.80;;;;;;;8.51;76.69;98553.09;4140355;28;20212;-83
2022/04/10 07:47:44;;;;;;;8.53;5.80;;;;;;;8.56;75.91;98561.47;4138030;28;20639;-82
2022/04/10 07:49:48;;;;;;;7.90;6.30;;;;;;;8.61;77.43;98564.66;4141104;28;20724;-85
2022/04/10 07:51:52;;;;;;;8.30;5.93;;;;;;;8.86;76.10;98562.44;4122113;28;20221;-83
2022/04/10 07:54:00;;;;;;;9.13;5.80;;;;;;;9.02;76.53;98564.97;4141519;28;20751;-84
2022/04/10 07:56:03;;;;;;;11.07;6.97;;;;;;;9.14;76.46;98561.69;4135802;28;21435;-84
2022/04/10 07:58:08;;;;;;;6.75;6.03;;;;;;;9.20;76.52;98556.16;4131603;28;20296;-83
2022/04/10 08:00:14;;;;;;;6.28;5.45;;;;;;;9.27;77.12;98567.88;4138411;28;20975;-83
2022/04/10 08:02:27;;;;;;;7.57;6.30;;;;;;;9.35;76.04;98570.94;4132148;28;20240;-83
2022/04/10 08:04:30;;;;;;;6.83;6.03;;;;;;;9.41;75.46;98573.16;4135588;28;20651;-83
2022/04/10 08:06:56;;;;;;;7.23;5.80;;;;;;;9.51;76.60;98574.31;4132455;28;20642;-84
2022/04/10 08:09:00;;;;;;;7.90;6.43;;;;;;;9.58;74.11;98581.72;4150027;28;20641;-84
2022/04/10 08:11:03;;;;;;;6.90;5.90;;;;;;;9.58;73.47;98584.31;4122769;28;20683;-84
2022/04/10 08:13:07;;;;;;;7.00;5.80;;;;;;;9.39;72.24;98582.81;4136758;28;20664;-85
2022/04/10 08:15:12;;;;;;;8.43;6.60;;;;;;;9.24;72.91;98581.06;4139146;28;21212;-84
2022/04/10 08:17:16;;;;;;;7.43;6.00;;;;;;;9.19;72.09;98593.50;4141885;28;21331;-85
2022/04/10 08:19:20;;;;;;;6.63;5.93;;;;;;;9.04;72.78;98580.50;4138243;28;21360;-85
2022/04/10 08:21:23;;;;;;;5.80;5.20;;;;;;;9.03;71.93;98581.41;4131932;28;21061;-86
2022/04/10 08:23:27;;;;;;;6.60;5.90;;;;;;;9.04;71.54;98589.13;4154544;28;20971;-86
2022/04/10 08:25:30;;;;;;;9.77;6.37;;;;;;;9.08;72.50;98582.84;4150010;28;21241;-84
2022/04/10 08:27:33;;;;;;;7.65;4.90;;;;;;;9.15;72.23;98589.38;4139707;28;21250;-84
2022/04/10 08:29:37;;;;;;;9.13;5.47;;;;;;;9.05;71.34;98593.41;4139554;28;20210;-84
2022/04/10 08:31:41;;;;;;;7.60;5.80;;;;;;;9.10;72.25;98591.41;4126527;28;21137;-85
2022/04/10 08:33:45;;;;;;;8.10;5.73;;;;;;;9.36;73.19;98597.78;4133102;28;20666;-85
2022/04/10 08:35:48;;;;;;;5.97;5.20;;;;;;;9.62;73.14;98598.84;4131713;28;20627;-85
2022/04/10 08:37:52;;;;;;;8.10;5.57;;;;;;;9.66;70.00;98602.09;4146447;28;20661;-85
2022/04/10 08:39:56;;;;;;;5.47;4.70;;;;;;;9.55;68.66;98605.31;4126958;28;20623;-85
2022/04/10 08:42:02;;;;;;;6.30;4.47;;;;;;;9.42;67.89;98596.50;4123704;28;21014;-86
2022/04/10 08:44:11;;;;;;;8.97;4.37;;;;;;;9.38;67.94;98595.91;4122471;28;20644;-85
2022/04/10 08:46:15;;;;;;;6.00;4.40;;;;;;;9.45;67.79;98600.69;4131472;28;20631;-85
2022/04/10 08:48:20;;;;;;;8.93;6.80;;;;;;;9.48;66.51;98603.97;4133753;28;20283;-85
2022/04/10 08:50:26;;;;;;;4.83;3.90;;;;;;;9.57;68.18;98607.84;4132633;28;20897;-85
2022/04/10 08:52:30;;;;;;;9.17;6.13;;;;;;;9.68;68.59;98605.44;4145957;28;20665;-85
2022/04/10 08:54:35;;;;;;;10.00;6.47;;;;;;;9.82;69.25;98603.75;4130228;28;21323;-85
2022/04/10 08:56:38;;;;;;;7.13;5.30;;;;;;;9.94;68.73;98603.09;4137889;28;21423;-85
2022/04/10 08:58:41;;;;;;;9.23;5.80;;;;;;;10.12;68.76;98607.25;4123412;28;20640;-85
2022/04/10 09:00:45;;;;;;;6.13;5.20;;;;;;;10.23;67.00;98604.84;4138824;28;21173;-85
2022/04/10 09:02:49;;;;;;;10.13;6.90;;;;;;;10.38;67.49;98609.97;4135264;28;21562;-85
2022/04/10 09:04:54;;;;;;;7.33;5.40;;;;;;;10.52;68.04;98607.38;4129561;28;21091;-85
2022/04/10 09:06:58;;;;;;;4.87;4.37;;;;;;;10.52;66.73;98608.22;4127775;28;20645;-85
2022/04/10 09:09:11;;;;;;;6.80;5.37;;;;;;;10.52;67.60;98608.22;4127453;28;20734;-85
2022/04/10 09:11:15;;;;;;;5.17;4.50;;;;;;;10.84;66.04;98609.75;4139327;28;21259;-85
2022/04/10 09:13:22;;;;;;;5.57;4.60;;;;;;;11.18;64.63;98604.09;4127363;28;21096;-85
2022/04/10 09:15:32;;;;;;;5.20;4.20;;;;;;;11.51;65.87;98610.69;4132283;28;20706;-85
2022/04/10 09:17:36;;;;;;;6.77;4.37;;;;;;;11.57;64.80;98605.06;4125846;28;20645;-86
2022/04/10 09:19:41;;;;;;;7.10;5.40;;;;;;;11.69;63.46;98606.91;4126754;28;21515;-85
2022/04/10 09:21:46;;;;;;;6.00;4.13;;;;;;;11.76;61.43;98611.63;4118099;28;21251;-85
2022/04/10 09:24:01;;;;;;;6.40;4.20;;;;;;;11.49;60.76;98616.00;4122613;28;20753;-85
2022/04/10 09:26:05;;;;;;;6.90;5.17;;;;;;;10.94;61.00;98619.50;4124864;28;21314;-85
2022/04/10 09:28:08;;;;;;;9.10;5.03;;;;;;;10.80;61.96;98614.28;4125771;28;21096;-85
2022/04/10 09:30:13;;;;;;;8.63;5.20;;;;;;;10.73;62.90;98608.72;4127453;28;20779;-85
2022/04/10 09:32:17;;;;;;;4.60;4.00;;;;;;;10.80;64.39;98612.63;4130790;28;20746;-85
2022/04/10 09:34:21;;;;;;;7.90;4.40;;;;;;;10.88;62.96;98617.28;4129025;28;20789;-85
2022/04/10 09:36:47;;;;;;;10.57;6.60;;;;;;;10.87;64.68;98618.22;4132459;28;21167;-85
2022/04/10 09:38:50;;;;;;;5.23;4.73;;;;;;;10.84;64.43;98621.00;4133410;28;20997;-86
2022/04/10 09:40:53;;;;;;;7.23;5.13;;;;;;;10.80;63.96;98612.63;4129678;28;20640;-86
2022/04/10 09:43:01;;;;;;;5.93;4.27;;;;;;;10.78;64.13;98611.88;4137641;28;21229;-86
2022/04/10 09:45:27;;;;;;;8.57;5.10;;;;;;;10.80;64.64;98609.06;4130290;28;20647;-86
2022/04/10 09:47:30;;;;;;;5.53;4.50;;;;;;;10.76;63.81;98613.75;4151503;28;20640;-85
2022/04/10 09:49:35;;;;;;;8.00;4.90;;;;;;;10.75;63.83;98614.66;4131069;28;20684;-86
2022/04/10 09:51:38;;;;;;;10.33;4.73;;;;;;;10.75;63.39;98614.66;4135242;28;20686;-87
2022/04/10 09:54:01;;;;;;;9.23;4.30;;;;;;;10.72;63.50;98620.06;4133056;28;20718;-85
2022/04/10 09:56:07;;;;;;;6.43;4.37;;;;;;;10.71;62.49;98615.78;4138640;28;21239;-86
2022/04/10 09:58:13;;;;;;;5.17;4.67;;;;;;;10.67;63.35;98615.13;4129310;28;20649;-85
2022/04/10 10:00:18;;;;;;;17.90;9.70;;;;;;;10.74;64.45;98613.00;4125804;28;20741;-85
2022/04/10 10:02:26;;;;;;;6.37;5.40;;;;;;;10.63;63.09;98612.78;4137983;28;20634;-85
2022/04/10 10:04:30;;;;;;;10.50;4.77;;;;;;;10.54;63.09;98610.72;4123040;28;20644;-86
2022/04/10 10:06:35;;;;;;;7.03;5.20;;;;;;;10.36;62.66;98615.28;4128434;28;20689;-86
2022/04/10 10:08:40;;;;;;;6.77;5.20;;;;;;;10.34;63.76;98613.69;4147308;28;21297;-86
2022/04/10 10:10:47;;;;;;;6.37;4.80;;;;;;;10.37;64.28;98614.38;4127641;28;20647;-86
2022/04/10 10:12:52;;;;;;;10.20;5.00;;;;;;;10.37;63.26;98616.97;4133624;28;20944;-86
2022/04/10 10:14:57;;;;;;;7.13;5.00;;;;;;;10.33;63.50;98623.28;4118963;28;20645;-86
2022/04/10 10:17:01;;;;;;;8.47;5.90;;;;;;;10.34;64.20;98624.13;4132737;28;20649;-86
2022/04/10 10:19:04;;;;;;;6.23;5.43;;;;;;;10.31;65.21;98620.84;4135296;28;20651;-85
2022/04/10 10:21:09;;;;;;;8.70;5.97;;;;;;;10.24;66.51;98625.59;4131175;28;20740;-86
2022/04/10 10:23:14;;;;;;;6.10;5.50;;;;;;;10.23;65.13;98625.69;4127322;28;20635;-86
2022/04/10 10:25:24;;;;;;;5.40;4.90;;;;;;;10.12;66.33;98626.31;4127244;28;20642;-86